Check out our new BloomSky Weather System.

Active alerts


No alerts


Thunder radar  blitzortung!


Rain radar more information rain snow radar


Visit our other weather sites:

Template documentation
and downloads

And another site



Weather Underground History page Text

Daily Summary for November 13, 2017 Units:  English    Metric   Both
« Previous Day
Next Day »
Daily Weekly Monthly Yearly Custom
  High: Low: Average:
Temperature: 78.4 °F 61.3 °F 68.7 °F
Dew Point: 66.0 °F 60.3 °F 62.5 °F
Humidity: 97 % 58 % 82 %
Wind Speed: 5.0 mph 0.0 mph 0.7 mph
Wind Gust: 9.0 mph - -
Wind:- - SE
Pressure: 30.30 in 30.18 in -
Precipitation: 0.00 in    
Historical Graphs
 
 
Tabular Data for November 13, 2017
Time Temperature Dew Point Pressure Wind Wind Speed Wind Gust Humidity Rainfall Rate (Hourly)
00:00 66.4 °F 64.0 °F 30.24 in Calm     92 % 0.00 in
00:05 66.4 °F 64.0 °F 30.24 in Calm     92 % 0.00 in
00:10 66.4 °F 64.0 °F 30.24 in Calm   1.0 mph 92 % 0.00 in
00:15 66.4 °F 64.0 °F 30.24 in Calm   1.0 mph 92 % 0.00 in
00:20 66.4 °F 64.0 °F 30.24 in Calm   1.0 mph 92 % 0.00 in
00:25 66.6 °F 64.2 °F 30.24 in Calm   1.0 mph 92 % 0.00 in
00:30 66.6 °F 64.2 °F 30.24 in Calm   1.0 mph 92 % 0.00 in
00:35 66.7 °F 64.4 °F 30.24 in Calm   1.0 mph 92 % 0.00 in
00:40 66.7 °F 64.4 °F 30.24 in Calm   1.0 mph 92 % 0.00 in
00:45 66.6 °F 64.2 °F 30.24 in Calm     92 % 0.00 in
00:50 66.7 °F 64.4 °F 30.24 in Calm     92 % 0.00 in
00:55 66.7 °F 64.4 °F 30.24 in Calm     92 % 0.00 in
01:00 66.7 °F 64.0 °F 30.24 in Calm     91 % 0.00 in
01:02 66.6 °F 63.9 °F 30.24 in Calm     91 % 0.00 in
01:08 66.6 °F 63.9 °F 30.24 in Calm     91 % 0.00 in
01:13 66.6 °F 64.2 °F 30.24 in Calm     92 % 0.00 in
01:18 66.4 °F 64.0 °F 30.23 in Calm     92 % 0.00 in
01:23 66.4 °F 64.0 °F 30.23 in Calm     92 % 0.00 in
01:28 66.2 °F 63.9 °F 30.23 in Calm     92 % 0.00 in
01:33 66.0 °F 63.7 °F 30.23 in Calm     92 % 0.00 in
01:38 65.8 °F 63.5 °F 30.23 in Calm     92 % 0.00 in
01:43 65.7 °F 63.5 °F 30.23 in Calm     93 % 0.00 in
01:48 65.5 °F 63.3 °F 30.23 in Calm   1.0 mph 93 % 0.00 in
01:53 65.3 °F 63.1 °F 30.23 in Calm   1.0 mph 93 % 0.00 in
01:58 65.1 °F 63.0 °F 30.23 in Calm   1.0 mph 93 % 0.00 in
02:03 64.9 °F 62.8 °F 30.23 in Calm   1.0 mph 93 % 0.00 in
02:08 64.9 °F 62.8 °F 30.23 in Calm   1.0 mph 93 % 0.00 in
02:13 64.8 °F 63.0 °F 30.24 in Calm   1.0 mph 94 % 0.00 in
02:18 64.8 °F 63.0 °F 30.24 in Calm   1.0 mph 94 % 0.00 in
02:23 64.6 °F 62.8 °F 30.23 in Calm   1.0 mph 94 % 0.00 in
02:28 64.6 °F 62.8 °F 30.23 in Calm   1.0 mph 94 % 0.00 in
02:33 64.2 °F 62.4 °F 30.24 in Calm   1.0 mph 94 % 0.00 in
02:38 64.0 °F 62.2 °F 30.24 in Calm     94 % 0.00 in
02:43 64.0 °F 62.2 °F 30.24 in Calm     94 % 0.00 in
02:48 63.9 °F 62.4 °F 30.24 in Calm     95 % 0.00 in
02:49 63.9 °F 62.4 °F 30.23 in Calm     95 % 0.00 in
02:54 63.7 °F 62.2 °F 30.23 in Calm   1.0 mph 95 % 0.00 in
02:59 63.7 °F 62.2 °F 30.23 in Calm   1.0 mph 95 % 0.00 in
03:04 63.5 °F 62.1 °F 30.23 in Calm   1.0 mph 95 % 0.00 in
03:09 63.5 °F 62.1 °F 30.23 in Calm   1.0 mph 95 % 0.00 in
03:14 63.5 °F 62.4 °F 30.22 in Calm   2.0 mph 96 % 0.00 in
03:19 63.5 °F 62.4 °F 30.22 in Calm   2.0 mph 96 % 0.00 in
03:24 63.7 °F 62.6 °F 30.22 in Calm   2.0 mph 96 % 0.00 in
03:29 63.7 °F 62.6 °F 30.22 in NE 2.0 mph 2.0 mph 96 % 0.00 in
03:34 63.9 °F 62.8 °F 30.22 in North 1.0 mph 2.0 mph 96 % 0.00 in
03:39 63.9 °F 62.8 °F 30.22 in Calm   3.0 mph 96 % 0.00 in
03:44 63.9 °F 62.4 °F 30.22 in NNW 1.0 mph 3.0 mph 95 % 0.00 in
03:49 63.9 °F 62.4 °F 30.22 in Calm   3.0 mph 95 % 0.00 in
03:54 63.7 °F 62.2 °F 30.22 in Calm   3.0 mph 95 % 0.00 in
03:59 63.5 °F 62.1 °F 30.22 in Calm   3.0 mph 95 % 0.00 in
04:05 63.3 °F 61.9 °F 30.22 in Calm   3.0 mph 95 % 0.00 in
04:10 63.3 °F 61.9 °F 30.22 in Calm   3.0 mph 95 % 0.00 in
04:15 63.3 °F 61.9 °F 30.22 in Calm   3.0 mph 95 % 0.00 in
04:20 63.3 °F 61.9 °F 30.22 in Calm   3.0 mph 95 % 0.00 in
04:25 63.1 °F 61.7 °F 30.22 in Calm   2.0 mph 95 % 0.00 in
04:30 63.1 °F 61.7 °F 30.22 in Calm   3.0 mph 95 % 0.00 in
04:35 63.0 °F 61.5 °F 30.22 in NE 1.0 mph 3.0 mph 95 % 0.00 in
04:40 63.0 °F 61.5 °F 30.22 in Calm   3.0 mph 95 % 0.00 in
04:45 63.0 °F 61.5 °F 30.22 in Calm   3.0 mph 95 % 0.00 in
04:50 62.8 °F 61.3 °F 30.23 in Calm   3.0 mph 95 % 0.00 in
04:55 62.8 °F 61.3 °F 30.23 in Calm   2.0 mph 95 % 0.00 in
05:00 62.4 °F 61.0 °F 30.23 in Calm   1.0 mph 95 % 0.00 in
05:05 62.4 °F 61.3 °F 30.23 in Calm   1.0 mph 96 % 0.00 in
05:10 62.4 °F 61.3 °F 30.23 in Calm   1.0 mph 96 % 0.00 in
05:15 62.2 °F 61.2 °F 30.23 in Calm   1.0 mph 96 % 0.00 in
05:20 62.2 °F 61.2 °F 30.24 in NNW 1.0 mph 1.0 mph 96 % 0.00 in
05:25 62.1 °F 61.0 °F 30.24 in NNE 1.0 mph 2.0 mph 96 % 0.00 in
05:30 62.1 °F 61.0 °F 30.24 in NNW 2.0 mph 2.0 mph 96 % 0.00 in
05:35 62.1 °F 61.0 °F 30.24 in Calm   2.0 mph 96 % 0.00 in
05:40 62.1 °F 61.0 °F 30.25 in NNW 1.0 mph 3.0 mph 96 % 0.00 in
05:45 62.1 °F 61.0 °F 30.25 in North 3.0 mph 3.0 mph 96 % 0.00 in
05:50 61.9 °F 60.8 °F 30.25 in Calm   3.0 mph 96 % 0.00 in
05:55 61.9 °F 60.8 °F 30.25 in Calm   3.0 mph 96 % 0.00 in
06:00 61.9 °F 60.8 °F 30.25 in Calm   4.0 mph 96 % 0.00 in
06:05 61.9 °F 60.8 °F 30.25 in NE 1.0 mph 4.0 mph 96 % 0.00 in
06:10 61.7 °F 60.6 °F 30.25 in NNW 1.0 mph 4.0 mph 96 % 0.00 in
06:15 61.5 °F 60.4 °F 30.25 in NNW 3.0 mph 3.0 mph 96 % 0.00 in
06:20 61.5 °F 60.4 °F 30.25 in NNE 1.0 mph 3.0 mph 96 % 0.00 in
06:25 61.5 °F 60.4 °F 30.26 in Calm   4.0 mph 96 % 0.00 in
06:30 61.5 °F 60.4 °F 30.26 in ENE 1.0 mph 4.0 mph 96 % 0.00 in
06:35 61.5 °F 60.4 °F 30.26 in NNW 1.0 mph 4.0 mph 96 % 0.00 in
06:40 61.3 °F 60.3 °F 30.26 in Calm   4.0 mph 96 % 0.00 in
06:45 61.3 °F 60.3 °F 30.26 in North 2.0 mph 4.0 mph 96 % 0.00 in
06:50 61.3 °F 60.3 °F 30.26 in NNE 1.0 mph 3.0 mph 96 % 0.00 in
06:55 61.3 °F 60.3 °F 30.26 in Calm   3.0 mph 96 % 0.00 in
07:00 61.3 °F 60.3 °F 30.26 in Calm   3.0 mph 96 % 0.00 in
07:05 61.3 °F 60.3 °F 30.27 in Calm   4.0 mph 96 % 0.00 in
07:10 61.3 °F 60.3 °F 30.27 in Calm   4.0 mph 96 % 0.00 in
07:15 61.3 °F 60.3 °F 30.27 in Calm   4.0 mph 96 % 0.00 in
07:20 61.5 °F 60.6 °F 30.27 in NNE 1.0 mph 4.0 mph 97 % 0.00 in
07:25 61.7 °F 60.8 °F 30.27 in Calm   4.0 mph 97 % 0.00 in
07:30 62.1 °F 61.2 °F 30.27 in ESE 1.0 mph 4.0 mph 97 % 0.00 in
07:35 62.2 °F 61.2 °F 30.28 in North 1.0 mph 4.0 mph 96 % 0.00 in
07:40 62.6 °F 61.5 °F 30.28 in ENE 1.0 mph 4.0 mph 96 % 0.00 in
07:45 63.0 °F 61.5 °F 30.28 in Calm   4.0 mph 95 % 0.00 in
07:50 63.1 °F 61.7 °F 30.28 in Calm   6.0 mph 95 % 0.00 in
07:55 63.3 °F 61.9 °F 30.28 in WSW 1.0 mph 6.0 mph 95 % 0.00 in
08:00 63.9 °F 62.1 °F 30.28 in Calm   6.0 mph 94 % 0.00 in
08:05 64.2 °F 62.2 °F 30.29 in Calm   5.0 mph 93 % 0.00 in
08:10 64.6 °F 62.2 °F 30.29 in Calm   5.0 mph 92 % 0.00 in
08:15 64.8 °F 62.4 °F 30.29 in Calm   5.0 mph 92 % 0.00 in
08:20 65.1 °F 62.4 °F 30.29 in North 2.0 mph 6.0 mph 91 % 0.00 in
08:26 65.5 °F 63.1 °F 30.29 in SE 2.0 mph 6.0 mph 92 % 0.00 in
08:30 65.7 °F 62.6 °F 30.29 in Calm   7.0 mph 90 % 0.00 in
08:35 66.4 °F 63.7 °F 30.29 in ESE 1.0 mph 7.0 mph 91 % 0.00 in
08:40 66.6 °F 63.5 °F 30.29 in Calm   7.0 mph 90 % 0.00 in
08:45 67.3 °F 63.9 °F 30.29 in Calm   5.0 mph 89 % 0.00 in
08:50 67.6 °F 63.7 °F 30.29 in ESE 1.0 mph 5.0 mph 87 % 0.00 in
08:55 67.8 °F 63.9 °F 30.29 in SSE 3.0 mph 7.0 mph 87 % 0.00 in
09:01 68.2 °F 64.4 °F 30.29 in SE 3.0 mph 7.0 mph 88 % 0.00 in
09:06 68.4 °F 64.4 °F 30.29 in SE 4.0 mph 7.0 mph 87 % 0.00 in
09:11 68.4 °F 64.0 °F 30.29 in ESE 4.0 mph 7.0 mph 86 % 0.00 in
09:16 68.5 °F 64.6 °F 30.29 in SSE 2.0 mph 7.0 mph 87 % 0.00 in
09:21 69.3 °F 64.6 °F 30.29 in South 3.0 mph 7.0 mph 85 % 0.00 in
09:26 69.8 °F 65.1 °F 30.29 in Calm   7.0 mph 85 % 0.00 in
09:31 70.2 °F 65.1 °F 30.30 in SE 1.0 mph 6.0 mph 84 % 0.00 in
09:36 70.2 °F 64.8 °F 30.30 in SE 5.0 mph 9.0 mph 83 % 0.00 in
09:41 70.3 °F 65.3 °F 30.30 in NE 1.0 mph 9.0 mph 84 % 0.00 in
09:46 70.5 °F 65.1 °F 30.30 in Calm   9.0 mph 83 % 0.00 in
09:51 71.4 °F 66.0 °F 30.30 in Calm   7.0 mph 83 % 0.00 in
09:56 72.0 °F 65.8 °F 30.30 in SE 2.0 mph 5.0 mph 81 % 0.00 in
10:01 72.1 °F 66.0 °F 30.30 in Calm   6.0 mph 81 % 0.00 in
10:06 72.3 °F 65.5 °F 30.30 in North 4.0 mph 7.0 mph 79 % 0.00 in
10:11 72.3 °F 65.5 °F 30.30 in ENE 5.0 mph 7.0 mph 79 % 0.00 in
10:16 72.5 °F 65.3 °F 30.30 in North 2.0 mph 7.0 mph 78 % 0.00 in
10:21 73.0 °F 65.8 °F 30.30 in East 3.0 mph 7.0 mph 78 % 0.00 in
10:26 73.0 °F 65.8 °F 30.30 in North 2.0 mph 7.0 mph 78 % 0.00 in
10:31 73.0 °F 65.5 °F 30.30 in NNW 4.0 mph 7.0 mph 77 % 0.00 in
10:36 73.2 °F 65.7 °F 30.30 in East 2.0 mph 7.0 mph 77 % 0.00 in
10:41 73.2 °F 65.1 °F 30.30 in NW 3.0 mph 7.0 mph 76 % 0.00 in
10:46 73.6 °F 65.1 °F 30.30 in NNW 1.0 mph 6.0 mph 75 % 0.00 in
10:51 73.8 °F 65.3 °F 30.30 in SE 2.0 mph 6.0 mph 75 % 0.00 in
10:56 73.9 °F 65.5 °F 30.29 in NNW 2.0 mph 6.0 mph 75 % 0.00 in
11:01 74.5 °F 65.3 °F 30.29 in NW 2.0 mph 6.0 mph 73 % 0.00 in
11:06 74.1 °F 64.6 °F 30.29 in ENE 2.0 mph 6.0 mph 72 % 0.00 in
11:11 74.5 °F 65.7 °F 30.29 in SSE 4.0 mph 6.0 mph 74 % 0.00 in
11:16 74.7 °F 65.1 °F 30.28 in NNE 3.0 mph 5.0 mph 72 % 0.00 in
11:21 75.4 °F 64.9 °F 30.28 in NNE 1.0 mph 5.0 mph 70 % 0.00 in
11:26 75.7 °F 64.4 °F 30.28 in NNE 1.0 mph 7.0 mph 68 % 0.00 in
11:31 75.7 °F 64.0 °F 30.28 in East 3.0 mph 7.0 mph 67 % 0.00 in
11:36 75.0 °F 64.2 °F 30.28 in East 1.0 mph 7.0 mph 69 % 0.00 in
11:41 75.0 °F 63.7 °F 30.28 in NNW 1.0 mph 7.0 mph 68 % 0.00 in
11:46 75.4 °F 62.8 °F 30.28 in North 2.0 mph 7.0 mph 65 % 0.00 in
11:51 75.7 °F 63.5 °F 30.28 in NE 2.0 mph 6.0 mph 66 % 0.00 in
11:56 76.3 °F 64.0 °F 30.27 in NE 3.0 mph 6.0 mph 66 % 0.00 in
12:01 76.6 °F 63.5 °F 30.26 in NNW 2.0 mph 6.0 mph 64 % 0.00 in
12:06 76.5 °F 63.3 °F 30.26 in NE 1.0 mph 5.0 mph 64 % 0.00 in
12:11 76.5 °F 63.3 °F 30.25 in SSE 2.0 mph 8.0 mph 64 % 0.00 in
12:16 76.3 °F 63.1 °F 30.25 in ENE 3.0 mph 8.0 mph 64 % 0.00 in
12:21 76.3 °F 62.8 °F 30.25 in ESE 1.0 mph 8.0 mph 63 % 0.00 in
12:26 76.5 °F 63.3 °F 30.25 in ENE 1.0 mph 7.0 mph 64 % 0.00 in
12:31 76.3 °F 63.1 °F 30.24 in NE 2.0 mph 7.0 mph 64 % 0.00 in
12:36 76.6 °F 63.1 °F 30.24 in North 2.0 mph 7.0 mph 63 % 0.00 in
12:41 77.2 °F 62.6 °F 30.23 in NNE 3.0 mph 7.0 mph 61 % 0.00 in
12:46 76.8 °F 62.8 °F 30.23 in NNW 1.0 mph 6.0 mph 62 % 0.00 in
12:51 76.8 °F 62.4 °F 30.23 in North 3.0 mph 6.0 mph 61 % 0.00 in
12:56 76.6 °F 62.6 °F 30.23 in Calm   6.0 mph 62 % 0.00 in
13:01 77.0 °F 63.0 °F 30.23 in NE 3.0 mph 6.0 mph 62 % 0.00 in
13:06 77.2 °F 62.6 °F 30.23 in NNW 2.0 mph 6.0 mph 61 % 0.00 in
13:11 77.4 °F 62.8 °F 30.23 in East 2.0 mph 5.0 mph 61 % 0.00 in
13:16 77.5 °F 62.6 °F 30.23 in SE 1.0 mph 5.0 mph 60 % 0.00 in
13:21 78.1 °F 62.6 °F 30.23 in Calm   5.0 mph 59 % 0.00 in
13:26 78.1 °F 62.6 °F 30.22 in East 1.0 mph 5.0 mph 59 % 0.00 in
13:31 77.9 °F 62.4 °F 30.22 in SE 3.0 mph 4.0 mph 59 % 0.00 in
13:36 77.5 °F 62.1 °F 30.22 in NE 2.0 mph 4.0 mph 59 % 0.00 in
13:41 77.7 °F 62.2 °F 30.22 in ENE 1.0 mph 4.0 mph 59 % 0.00 in
13:46 77.7 °F 62.8 °F 30.22 in NNE 2.0 mph 4.0 mph 60 % 0.00 in
13:51 77.9 °F 62.4 °F 30.22 in Calm   4.0 mph 59 % 0.00 in
13:56 77.7 °F 62.2 °F 30.22 in NNW 1.0 mph 4.0 mph 59 % 0.00 in
14:01 77.5 °F 62.6 °F 30.21 in NNE 2.0 mph 4.0 mph 60 % 0.00 in
14:06 77.4 °F 62.4 °F 30.21 in North 2.0 mph 4.0 mph 60 % 0.00 in
14:11 77.5 °F 62.6 °F 30.20 in WNW 1.0 mph 4.0 mph 60 % 0.00 in
14:16 77.9 °F 63.0 °F 30.20 in Calm   4.0 mph 60 % 0.00 in
14:21 78.1 °F 62.1 °F 30.20 in East 1.0 mph 4.0 mph 58 % 0.00 in
14:26 78.1 °F 63.5 °F 30.20 in NNE 3.0 mph 5.0 mph 61 % 0.00 in
14:31 78.4 °F 63.0 °F 30.20 in NE 1.0 mph 5.0 mph 59 % 0.00 in
14:36 78.3 °F 62.8 °F 30.21 in Calm   6.0 mph 59 % 0.00 in
14:41 78.4 °F 63.0 °F 30.20 in NNE 2.0 mph 6.0 mph 59 % 0.00 in
14:46 78.4 °F 62.4 °F 30.20 in NW 2.0 mph 6.0 mph 58 % 0.00 in
14:51 78.1 °F 62.1 °F 30.20 in East 1.0 mph 6.0 mph 58 % 0.00 in
14:56 78.1 °F 62.6 °F 30.20 in ESE 3.0 mph 6.0 mph 59 % 0.00 in
15:01 77.7 °F 62.2 °F 30.19 in SE 1.0 mph 6.0 mph 59 % 0.00 in
15:06 77.7 °F 62.8 °F 30.19 in Calm   5.0 mph 60 % 0.00 in
15:11 77.9 °F 62.4 °F 30.19 in Calm   5.0 mph 59 % 0.00 in
15:16 78.4 °F 63.0 °F 30.19 in ESE 2.0 mph 5.0 mph 59 % 0.00 in
15:21 78.4 °F 62.4 °F 30.19 in SE 1.0 mph 5.0 mph 58 % 0.00 in
15:26 78.1 °F 62.6 °F 30.19 in Calm   3.0 mph 59 % 0.00 in
15:31 77.5 °F 61.5 °F 30.18 in Calm   5.0 mph 58 % 0.00 in
15:36 77.4 °F 62.4 °F 30.19 in NNW 2.0 mph 5.0 mph 60 % 0.00 in
15:41 77.5 °F 62.6 °F 30.19 in NNE 1.0 mph 5.0 mph 60 % 0.00 in
15:46 77.5 °F 62.1 °F 30.19 in Calm   4.0 mph 59 % 0.00 in
15:51 77.5 °F 62.1 °F 30.19 in East 1.0 mph 4.0 mph 59 % 0.00 in
15:56 77.4 °F 61.9 °F 30.19 in ESE 1.0 mph 4.0 mph 59 % 0.00 in
16:01 77.2 °F 61.7 °F 30.19 in Calm   4.0 mph 59 % 0.00 in
16:06 77.4 °F 62.4 °F 30.19 in North 2.0 mph 3.0 mph 60 % 0.00 in
16:11 77.4 °F 62.4 °F 30.19 in Calm   3.0 mph 60 % 0.00 in
16:16 77.2 °F 62.2 °F 30.19 in North 1.0 mph 3.0 mph 60 % 0.00 in
16:21 76.8 °F 62.4 °F 30.19 in Calm   3.0 mph 61 % 0.00 in
16:26 76.6 °F 62.6 °F 30.19 in Calm   3.0 mph 62 % 0.00 in
16:31 76.5 °F 62.4 °F 30.19 in East 1.0 mph 3.0 mph 62 % 0.00 in
16:36 76.3 °F 62.2 °F 30.19 in Calm   3.0 mph 62 % 0.00 in
16:41 75.9 °F 61.9 °F 30.19 in Calm   2.0 mph 62 % 0.00 in
16:46 75.7 °F 62.2 °F 30.19 in ESE 1.0 mph 3.0 mph 63 % 0.00 in
16:51 75.6 °F 62.1 °F 30.19 in ESE 1.0 mph 3.0 mph 63 % 0.00 in
16:56 75.4 °F 62.4 °F 30.19 in ESE 1.0 mph 3.0 mph 64 % 0.00 in
17:01 75.0 °F 62.1 °F 30.19 in Calm   2.0 mph 64 % 0.00 in
17:06 74.7 °F 62.1 °F 30.19 in Calm   2.0 mph 65 % 0.00 in
17:11 74.3 °F 62.2 °F 30.19 in Calm   1.0 mph 66 % 0.00 in
17:16 73.9 °F 62.2 °F 30.19 in Calm   1.0 mph 67 % 0.00 in
17:21 73.8 °F 62.6 °F 30.19 in Calm   1.0 mph 68 % 0.00 in
17:26 73.2 °F 62.4 °F 30.19 in Calm   1.0 mph 69 % 0.00 in
17:31 72.9 °F 62.4 °F 30.20 in Calm   1.0 mph 70 % 0.00 in
17:36 72.3 °F 62.4 °F 30.20 in Calm   1.0 mph 71 % 0.00 in
17:41 72.0 °F 62.4 °F 30.20 in Calm   2.0 mph 72 % 0.00 in
17:46 71.8 °F 62.6 °F 30.21 in NNE 1.0 mph 2.0 mph 73 % 0.00 in
17:51 71.6 °F 62.4 °F 30.20 in Calm   2.0 mph 73 % 0.00 in
17:56 71.2 °F 62.6 °F 30.20 in Calm   2.0 mph 74 % 0.00 in
18:01 71.1 °F 62.4 °F 30.20 in Calm   2.0 mph 74 % 0.00 in
18:06 70.9 °F 62.6 °F 30.20 in Calm   1.0 mph 75 % 0.00 in
18:11 70.7 °F 62.4 °F 30.20 in Calm   1.0 mph 75 % 0.00 in
18:16 70.3 °F 62.4 °F 30.21 in Calm   1.0 mph 76 % 0.00 in
18:21 70.2 °F 62.2 °F 30.21 in Calm   1.0 mph 76 % 0.00 in
18:26 69.8 °F 62.2 °F 30.21 in Calm   1.0 mph 77 % 0.00 in
18:31 69.6 °F 62.4 °F 30.21 in Calm   1.0 mph 78 % 0.00 in
18:36 69.3 °F 62.1 °F 30.21 in Calm   1.0 mph 78 % 0.00 in
18:41 69.1 °F 62.2 °F 30.21 in Calm     79 % 0.00 in
18:46 68.7 °F 62.2 °F 30.21 in Calm     80 % 0.00 in
18:51 68.7 °F 62.2 °F 30.21 in Calm   1.0 mph 80 % 0.00 in
18:56 68.5 °F 62.1 °F 30.22 in Calm   1.0 mph 80 % 0.00 in
19:01 68.5 °F 62.4 °F 30.22 in Calm   1.0 mph 81 % 0.00 in
19:06 68.4 °F 62.2 °F 30.22 in Calm   1.0 mph 81 % 0.00 in
19:11 68.2 °F 62.1 °F 30.22 in Calm   1.0 mph 81 % 0.00 in
19:16 68.0 °F 62.2 °F 30.22 in Calm   1.0 mph 82 % 0.00 in
19:21 67.8 °F 62.1 °F 30.22 in Calm   1.0 mph 82 % 0.00 in
19:26 67.6 °F 61.9 °F 30.22 in Calm   1.0 mph 82 % 0.00 in
19:31 67.3 °F 61.9 °F 30.22 in Calm   1.0 mph 83 % 0.00 in
19:36 67.1 °F 62.1 °F 30.22 in Calm   1.0 mph 84 % 0.00 in
19:41 66.9 °F 61.9 °F 30.22 in Calm   1.0 mph 84 % 0.00 in
19:46 66.6 °F 61.9 °F 30.22 in Calm   1.0 mph 85 % 0.00 in
19:51 66.4 °F 61.7 °F 30.22 in Calm     85 % 0.00 in
19:56 66.2 °F 61.9 °F 30.22 in Calm     86 % 0.00 in
20:01 66.2 °F 61.9 °F 30.22 in Calm   1.0 mph 86 % 0.00 in
20:03 66.0 °F 61.7 °F 30.22 in Calm   1.0 mph 86 % 0.00 in
20:09 66.0 °F 62.1 °F 30.22 in Calm   1.0 mph 87 % 0.00 in
20:14 66.0 °F 62.1 °F 30.21 in Calm   1.0 mph 87 % 0.00 in
20:19 66.0 °F 62.1 °F 30.22 in Calm   1.0 mph 87 % 0.00 in
20:24 66.0 °F 62.1 °F 30.22 in Calm   2.0 mph 87 % 0.00 in
20:29 65.8 °F 62.2 °F 30.22 in Calm   2.0 mph 88 % 0.00 in
20:34 65.8 °F 62.2 °F 30.22 in Calm   2.0 mph 88 % 0.00 in
20:39 65.8 °F 62.2 °F 30.22 in Calm   1.0 mph 88 % 0.00 in
20:44 65.8 °F 62.2 °F 30.22 in Calm   1.0 mph 88 % 0.00 in
20:49 65.8 °F 62.2 °F 30.22 in Calm   1.0 mph 88 % 0.00 in
20:54 65.8 °F 62.2 °F 30.22 in Calm   1.0 mph 88 % 0.00 in
20:59 65.7 °F 62.1 °F 30.22 in Calm   1.0 mph 88 % 0.00 in
21:04 65.7 °F 62.2 °F 30.22 in SE 1.0 mph 1.0 mph 89 % 0.00 in
21:09 65.7 °F 62.2 °F 30.22 in SE 1.0 mph 1.0 mph 89 % 0.00 in
21:15 65.8 °F 62.4 °F 30.22 in Calm   1.0 mph 89 % 0.00 in
21:20 65.7 °F 62.1 °F 30.22 in Calm   1.0 mph 88 % 0.00 in
21:21 65.7 °F 62.1 °F 30.22 in Calm   1.0 mph 88 % 0.00 in
21:26 65.3 °F 61.7 °F 30.22 in Calm   1.0 mph 88 % 0.00 in
21:28 65.3 °F 61.7 °F 30.22 in Calm   1.0 mph 88 % 0.00 in
21:33 65.1 °F 61.9 °F 30.22 in Calm   1.0 mph 89 % 0.00 in
21:38 64.9 °F 61.7 °F 30.22 in Calm   1.0 mph 89 % 0.00 in
21:43 64.9 °F 61.7 °F 30.23 in Calm   1.0 mph 89 % 0.00 in
21:48 64.8 °F 61.5 °F 30.22 in Calm     89 % 0.00 in
21:53 64.9 °F 61.9 °F 30.22 in Calm   1.0 mph 90 % 0.00 in
21:58 64.9 °F 61.9 °F 30.22 in Calm   1.0 mph 90 % 0.00 in
22:03 64.9 °F 61.9 °F 30.22 in Calm   1.0 mph 90 % 0.00 in
22:08 64.9 °F 61.7 °F 30.22 in Calm     89 % 0.00 in
22:13 64.9 °F 61.7 °F 30.22 in Calm     89 % 0.00 in
22:18 64.9 °F 61.7 °F 30.22 in Calm     89 % 0.00 in
22:23 64.9 °F 61.7 °F 30.22 in Calm   1.0 mph 89 % 0.00 in
22:28 64.9 °F 61.7 °F 30.22 in Calm   1.0 mph 89 % 0.00 in
22:33 64.9 °F 61.7 °F 30.22 in Calm   1.0 mph 89 % 0.00 in
22:38 64.8 °F 61.5 °F 30.22 in Calm   1.0 mph 89 % 0.00 in
22:43 64.6 °F 61.5 °F 30.22 in Calm   1.0 mph 90 % 0.00 in
22:48 64.2 °F 61.2 °F 30.22 in Calm   1.0 mph 90 % 0.00 in
22:53 64.0 °F 61.0 °F 30.22 in Calm     90 % 0.00 in
22:58 63.7 °F 61.0 °F 30.22 in Calm     91 % 0.00 in
23:03 63.5 °F 60.8 °F 30.22 in Calm     91 % 0.00 in
23:08 63.3 °F 60.6 °F 30.22 in Calm     91 % 0.00 in
23:13 63.1 °F 60.8 °F 30.22 in Calm   1.0 mph 92 % 0.00 in
23:18 63.1 °F 60.8 °F 30.22 in Calm   1.0 mph 92 % 0.00 in
23:23 63.0 °F 60.6 °F 30.22 in Calm   1.0 mph 92 % 0.00 in
23:28 63.0 °F 60.6 °F 30.22 in Calm   1.0 mph 92 % 0.00 in
23:33 62.8 °F 60.8 °F 30.22 in Calm   1.0 mph 93 % 0.00 in
23:38 62.6 °F 60.6 °F 30.22 in Calm   1.0 mph 93 % 0.00 in
23:43 62.6 °F 60.6 °F 30.22 in Calm     93 % 0.00 in
23:48 62.8 °F 60.8 °F 30.22 in Calm     93 % 0.00 in
23:53 62.6 °F 60.6 °F 30.22 in Calm   1.0 mph 93 % 0.00 in
23:58 62.4 °F 60.4 °F 30.21 in Calm   1.0 mph 93 % 0.00 in
Spring, Texas: Villages of Bridgestone
Compliments of Weather Underground - 2.75 mb

Script developed by  Jim McMurry - jmcmurry@mwt.net Adapted for the template by  Wim van der Kuil - Leuven-Template.eu

You find our weather info also at:

UK Metoffice

WeatherCloud

Weather Underground

Mid-South Weather Network

AWEKAS

Citizen Weather Observer Program (CWOP)

HAMweather, WeatherForYou, PWS Weather

Equipment we use:

Weather-station
Davis Vantage Vue

Weather-program
Meteohub

Weather-server
Debian 7.9 x86 (Guest)

Provider
DreamHost

Davis Vantage Vue

Meteohub

Debian 7.9 x86 (Guest)

DreamHost